sensor_id;sensor_type;location;lat;lon;timestamp;pressure;altitude;pressure_sealevel;temperature;humidity
11223;BME280;5668;52.012;8.724;2023-08-06T00:02:18;99276.84;;;17.70;100.00
11223;BME280;5668;52.012;8.724;2023-08-06T00:04:45;99278.00;;;17.67;100.00
11223;BME280;5668;52.012;8.724;2023-08-06T00:07:13;99276.84;;;17.70;100.00
11223;BME280;5668;52.012;8.724;2023-08-06T00:09:41;99276.84;;;17.70;100.00
11223;BME280;5668;52.012;8.724;2023-08-06T00:12:08;99275.84;;;17.71;100.00
11223;BME280;5668;52.012;8.724;2023-08-06T00:14:35;99270.94;;;17.68;100.00
11223;BME280;5668;52.012;8.724;2023-08-06T00:17:03;99263.44;;;17.65;100.00
11223;BME280;5668;52.012;8.724;2023-08-06T00:19:31;99261.63;;;17.65;100.00
11223;BME280;5668;52.012;8.724;2023-08-06T00:21:58;99255.06;;;17.61;100.00
11223;BME280;5668;52.012;8.724;2023-08-06T00:24:25;99252.91;;;17.65;100.00
11223;BME280;5668;52.012;8.724;2023-08-06T00:26:54;99259.44;;;17.69;100.00
11223;BME280;5668;52.012;8.724;2023-08-06T00:29:21;99261.06;;;17.70;100.00
11223;BME280;5668;52.012;8.724;2023-08-06T00:31:48;99250.66;;;17.76;100.00
11223;BME280;5668;52.012;8.724;2023-08-06T00:34:15;99262.09;;;17.84;100.00
11223;BME280;5668;52.012;8.724;2023-08-06T00:36:43;99253.38;;;17.83;100.00
11223;BME280;5668;52.012;8.724;2023-08-06T00:39:10;99250.41;;;17.86;100.00
11223;BME280;5668;52.012;8.724;2023-08-06T00:41:37;99259.28;;;17.85;100.00
11223;BME280;5668;52.012;8.724;2023-08-06T00:44:06;99258.03;;;17.81;100.00
11223;BME280;5668;52.012;8.724;2023-08-06T00:46:34;99249.50;;;17.79;100.00
11223;BME280;5668;52.012;8.724;2023-08-06T00:49:01;99253.28;;;17.76;100.00
11223;BME280;5668;52.012;8.724;2023-08-06T00:51:29;99253.09;;;17.78;100.00
11223;BME280;5668;52.012;8.724;2023-08-06T00:53:56;99241.69;;;17.71;100.00
11223;BME280;5668;52.012;8.724;2023-08-06T00:56:24;99241.41;;;17.66;100.00
11223;BME280;5668;52.012;8.724;2023-08-06T00:58:52;99233.53;;;17.66;100.00
11223;BME280;5668;52.012;8.724;2023-08-06T01:01:21;99234.34;;;17.66;100.00
11223;BME280;5668;52.012;8.724;2023-08-06T01:03:48;99225.81;;;17.64;100.00
11223;BME280;5668;52.012;8.724;2023-08-06T01:06:21;99226.00;;;17.63;100.00
11223;BME280;5668;52.012;8.724;2023-08-06T01:09:01;99218.28;;;17.61;100.00
11223;BME280;5668;52.012;8.724;2023-08-06T01:11:41;99216.47;;;17.62;100.00
11223;BME280;5668;52.012;8.724;2023-08-06T01:14:15;99212.03;;;17.62;100.00
11223;BME280;5668;52.012;8.724;2023-08-06T01:16:48;99202.34;;;17.63;100.00
11223;BME280;5668;52.012;8.724;2023-08-06T01:19:17;99210.88;;;17.65;100.00
11223;BME280;5668;52.012;8.724;2023-08-06T01:21:45;99203.34;;;17.62;100.00
11223;BME280;5668;52.012;8.724;2023-08-06T01:24:13;99198.59;;;17.57;100.00
11223;BME280;5668;52.012;8.724;2023-08-06T01:26:44;99201.84;;;17.59;100.00
11223;BME280;5668;52.012;8.724;2023-08-06T01:29:18;99196.41;;;17.61;100.00
11223;BME280;5668;52.012;8.724;2023-08-06T01:31:50;99189.19;;;17.63;100.00
11223;BME280;5668;52.012;8.724;2023-08-06T01:34:21;99192.66;;;17.63;100.00
11223;BME280;5668;52.012;8.724;2023-08-06T01:36:50;99181.41;;;17.69;100.00
11223;BME280;5668;52.012;8.724;2023-08-06T01:39:18;99182.50;;;17.75;100.00
11223;BME280;5668;52.012;8.724;2023-08-06T01:41:46;99178.25;;;17.74;100.00
11223;BME280;5668;52.012;8.724;2023-08-06T01:44:14;99173.00;;;17.74;100.00
11223;BME280;5668;52.012;8.724;2023-08-06T01:46:41;99177.78;;;17.70;100.00
11223;BME280;5668;52.012;8.724;2023-08-06T01:49:08;99175.34;;;17.69;100.00
11223;BME280;5668;52.012;8.724;2023-08-06T01:51:36;99174.53;;;17.68;100.00
11223;BME280;5668;52.012;8.724;2023-08-06T01:54:04;99169.44;;;17.67;100.00
11223;BME280;5668;52.012;8.724;2023-08-06T01:56:31;99167.00;;;17.65;100.00
11223;BME280;5668;52.012;8.724;2023-08-06T01:58:58;99164.19;;;17.67;100.00
11223;BME280;5668;52.012;8.724;2023-08-06T02:01:26;99159.56;;;17.69;100.00
11223;BME280;5668;52.012;8.724;2023-08-06T02:03:53;99154.31;;;17.69;100.00
11223;BME280;5668;52.012;8.724;2023-08-06T02:06:21;99160.22;;;17.71;100.00
11223;BME280;5668;52.012;8.724;2023-08-06T02:08:48;99159.56;;;17.69;100.00
11223;BME280;5668;52.012;8.724;2023-08-06T02:11:16;99151.34;;;17.72;100.00
11223;BME280;5668;52.012;8.724;2023-08-06T02:13:44;99150.34;;;17.73;100.00
11223;BME280;5668;52.012;8.724;2023-08-06T02:16:12;99157.59;;;17.71;100.00
11223;BME280;5668;52.012;8.724;2023-08-06T02:18:39;99155.94;;;17.70;100.00
11223;BME280;5668;52.012;8.724;2023-08-06T02:21:07;99160.84;;;17.73;100.00
11223;BME280;5668;52.012;8.724;2023-08-06T02:23:34;99157.59;;;17.71;100.00
11223;BME280;5668;52.012;8.724;2023-08-06T02:26:02;99148.88;;;17.70;100.00
11223;BME280;5668;52.012;8.724;2023-08-06T02:28:31;99144.28;;;17.72;100.00
11223;BME280;5668;52.012;8.724;2023-08-06T02:30:59;99142.81;;;17.70;100.00
11223;BME280;5668;52.012;8.724;2023-08-06T02:33:26;99145.09;;;17.73;100.00
11223;BME280;5668;52.012;8.724;2023-08-06T02:35:59;99140.19;;;17.70;100.00
11223;BME280;5668;52.012;8.724;2023-08-06T02:38:27;99137.91;;;17.67;100.00
11223;BME280;5668;52.012;8.724;2023-08-06T02:40:54;99132.47;;;17.68;100.00
11223;BME280;5668;52.012;8.724;2023-08-06T02:43:21;99127.31;;;17.75;100.00
11223;BME280;5668;52.012;8.724;2023-08-06T02:45:50;99124.31;;;17.78;100.00
11223;BME280;5668;52.012;8.724;2023-08-06T02:48:17;99131.84;;;17.81;100.00
11223;BME280;5668;52.012;8.724;2023-08-06T02:50:44;99123.59;;;17.84;100.00
11223;BME280;5668;52.012;8.724;2023-08-06T02:53:12;99126.69;;;17.88;100.00
11223;BME280;5668;52.012;8.724;2023-08-06T02:55:45;99123.34;;;18.15;98.22
11223;BME280;5668;52.012;8.724;2023-08-06T02:58:13;99110.97;;;17.94;98.15
11223;BME280;5668;52.012;8.724;2023-08-06T03:00:41;99111.44;;;17.83;97.86
11223;BME280;5668;52.012;8.724;2023-08-06T03:03:10;99105.28;;;17.76;98.64
11223;BME280;5668;52.012;8.724;2023-08-06T03:05:37;99102.66;;;17.76;98.97
11223;BME280;5668;52.012;8.724;2023-08-06T03:08:04;99102.66;;;17.76;98.60
11223;BME280;5668;52.012;8.724;2023-08-06T03:10:32;99100.19;;;17.74;98.48
11223;BME280;5668;52.012;8.724;2023-08-06T03:12:59;99096.97;;;17.72;98.62
11223;BME280;5668;52.012;8.724;2023-08-06T03:15:26;99101.94;;;17.67;98.52
11223;BME280;5668;52.012;8.724;2023-08-06T03:17:56;99089.59;;;17.68;98.69
11223;BME280;5668;52.012;8.724;2023-08-06T03:20:25;99086.38;;;17.66;98.78
11223;BME280;5668;52.012;8.724;2023-08-06T03:22:52;99090.59;;;17.67;98.79
11223;BME280;5668;52.012;8.724;2023-08-06T03:25:19;99084.91;;;17.63;98.22
11223;BME280;5668;52.012;8.724;2023-08-06T03:27:47;99085.44;;;17.59;98.42
11223;BME280;5668;52.012;8.724;2023-08-06T03:30:14;99078.16;;;17.61;98.73
11223;BME280;5668;52.012;8.724;2023-08-06T03:32:41;99076.22;;;17.63;98.53
11223;BME280;5668;52.012;8.724;2023-08-06T03:35:08;99079.47;;;17.65;98.57
11223;BME280;5668;52.012;8.724;2023-08-06T03:37:37;99077.84;;;17.64;98.04
11223;BME280;5668;52.012;8.724;2023-08-06T03:40:06;99076.22;;;17.63;98.10
11223;BME280;5668;52.012;8.724;2023-08-06T03:42:34;99075.53;;;17.61;97.83
11223;BME280;5668;52.012;8.724;2023-08-06T03:45:01;99074.59;;;17.62;97.94
11223;BME280;5668;52.012;8.724;2023-08-06T03:47:29;99069.31;;;17.62;97.75
11223;BME280;5668;52.012;8.724;2023-08-06T03:49:56;99071.28;;;17.60;97.89
11223;BME280;5668;52.012;8.724;2023-08-06T03:52:23;99065.88;;;17.61;97.96
11223;BME280;5668;52.012;8.724;2023-08-06T03:54:52;99066.03;;;17.60;97.54
11223;BME280;5668;52.012;8.724;2023-08-06T03:57:19;99067.06;;;17.59;97.38
11223;BME280;5668;52.012;8.724;2023-08-06T03:59:46;99059.16;;;17.59;97.72
11223;BME280;5668;52.012;8.724;2023-08-06T04:02:13;99057.72;;;17.56;97.64
11223;BME280;5668;52.012;8.724;2023-08-06T04:04:40;99063.13;;;17.55;97.33
11223;BME280;5668;52.012;8.724;2023-08-06T04:07:08;99061.50;;;17.54;97.30
11223;BME280;5668;52.012;8.724;2023-08-06T04:09:56;99058.63;;;17.49;96.93
11223;BME280;5668;52.012;8.724;2023-08-06T04:12:23;99061.06;;;17.50;97.59
11223;BME280;5668;52.012;8.724;2023-08-06T04:14:51;99059.63;;;17.48;97.35
11223;BME280;5668;52.012;8.724;2023-08-06T04:17:19;99068.66;;;17.45;97.13
11223;BME280;5668;52.012;8.724;2023-08-06T04:19:47;99062.97;;;17.41;97.47
11223;BME280;5668;52.012;8.724;2023-08-06T04:22:15;99068.75;;;17.37;97.56
11223;BME280;5668;52.012;8.724;2023-08-06T04:24:42;99067.31;;;17.34;97.61
11223;BME280;5668;52.012;8.724;2023-08-06T04:27:12;99069.94;;;17.34;98.08
11223;BME280;5668;52.012;8.724;2023-08-06T04:29:40;99068.31;;;17.33;97.86
11223;BME280;5668;52.012;8.724;2023-08-06T04:32:08;99068.13;;;17.35;98.29
11223;BME280;5668;52.012;8.724;2023-08-06T04:34:36;99069.78;;;17.36;98.53
11223;BME280;5668;52.012;8.724;2023-08-06T04:37:04;99066.94;;;17.37;98.94
11223;BME280;5668;52.012;8.724;2023-08-06T04:39:31;99063.16;;;17.40;98.77
11223;BME280;5668;52.012;8.724;2023-08-06T04:41:58;99063.78;;;17.42;98.73
11223;BME280;5668;52.012;8.724;2023-08-06T04:44:27;99066.94;;;17.37;98.67
11223;BME280;5668;52.012;8.724;2023-08-06T04:46:54;99080.63;;;17.33;98.65
11223;BME280;5668;52.012;8.724;2023-08-06T04:49:21;99075.94;;;17.28;99.55
11223;BME280;5668;52.012;8.724;2023-08-06T04:51:49;99076.53;;;17.30;99.58
11223;BME280;5668;52.012;8.724;2023-08-06T04:54:16;99078.56;;;17.72;96.89
11223;BME280;5668;52.012;8.724;2023-08-06T04:56:43;99079.47;;;17.50;98.39
11223;BME280;5668;52.012;8.724;2023-08-06T04:59:10;99076.28;;;17.40;99.06
11223;BME280;5668;52.012;8.724;2023-08-06T05:01:39;99080.97;;;17.30;99.73
11223;BME280;5668;52.012;8.724;2023-08-06T05:04:06;99077.28;;;17.24;100.00
11223;BME280;5668;52.012;8.724;2023-08-06T05:06:33;99074.28;;;17.27;100.00
11223;BME280;5668;52.012;8.724;2023-08-06T05:09:00;99069.94;;;17.34;100.00
11223;BME280;5668;52.012;8.724;2023-08-06T05:11:28;99072.50;;;17.42;100.00
11223;BME280;5668;52.012;8.724;2023-08-06T05:13:55;99074.72;;;17.46;100.00
11223;BME280;5668;52.012;8.724;2023-08-06T05:16:22;99063.41;;;17.45;100.00
11223;BME280;5668;52.012;8.724;2023-08-06T05:18:51;99060.88;;;17.52;100.00
11223;BME280;5668;52.012;8.724;2023-08-06T05:21:18;99065.22;;;17.45;100.00
11223;BME280;5668;52.012;8.724;2023-08-06T05:23:45;99075.28;;;17.41;100.00
11223;BME280;5668;52.012;8.724;2023-08-06T05:26:12;99068.13;;;17.35;100.00
11223;BME280;5668;52.012;8.724;2023-08-06T05:28:40;99068.50;;;17.32;100.00
11223;BME280;5668;52.012;8.724;2023-08-06T05:31:08;99071.28;;;17.30;100.00
11223;BME280;5668;52.012;8.724;2023-08-06T05:33:35;99072.28;;;17.29;100.00
11223;BME280;5668;52.012;8.724;2023-08-06T05:36:04;99073.31;;;17.28;100.00
11223;BME280;5668;52.012;8.724;2023-08-06T05:38:31;99073.31;;;17.28;100.00
11223;BME280;5668;52.012;8.724;2023-08-06T05:40:58;99072.28;;;17.29;100.00
11223;BME280;5668;52.012;8.724;2023-08-06T05:43:26;99078.81;;;17.33;100.00
11223;BME280;5668;52.012;8.724;2023-08-06T05:45:53;99074.38;;;17.34;100.00
11223;BME280;5668;52.012;8.724;2023-08-06T05:48:20;99076.84;;;17.35;100.00
11223;BME280;5668;52.012;8.724;2023-08-06T05:50:48;99074.66;;;17.39;100.00
11223;BME280;5668;52.012;8.724;2023-08-06T05:53:17;99078.72;;;17.41;100.00
11223;BME280;5668;52.012;8.724;2023-08-06T05:55:44;99082.00;;;17.44;100.00
11223;BME280;5668;52.012;8.724;2023-08-06T05:58:11;99080.00;;;17.46;100.00
11223;BME280;5668;52.012;8.724;2023-08-06T06:00:39;99074.72;;;17.46;100.00
11223;BME280;5668;52.012;8.724;2023-08-06T06:03:06;99078.00;;;17.48;100.00
11223;BME280;5668;52.012;8.724;2023-08-06T06:05:33;99072.00;;;17.54;100.00
11223;BME280;5668;52.012;8.724;2023-08-06T06:08:00;99070.38;;;17.53;100.00
11223;BME280;5668;52.012;8.724;2023-08-06T06:10:29;99072.84;;;17.54;100.00
11223;BME280;5668;52.012;8.724;2023-08-06T06:12:56;99075.47;;;17.54;100.00
11223;BME280;5668;52.012;8.724;2023-08-06T06:15:24;99076.91;;;17.57;100.00
11223;BME280;5668;52.012;8.724;2023-08-06T06:17:51;99069.69;;;17.59;100.00
11223;BME280;5668;52.012;8.724;2023-08-06T06:20:21;99069.69;;;17.59;100.00
11223;BME280;5668;52.012;8.724;2023-08-06T06:22:49;99069.69;;;17.59;100.00
11223;BME280;5668;52.012;8.724;2023-08-06T06:25:16;99065.88;;;17.61;100.00
11223;BME280;5668;52.012;8.724;2023-08-06T06:27:44;99062.91;;;17.64;100.00
11223;BME280;5668;52.012;8.724;2023-08-06T06:30:12;99064.06;;;17.62;100.00
11223;BME280;5668;52.012;8.724;2023-08-06T06:32:40;99065.34;;;17.66;100.00
11223;BME280;5668;52.012;8.724;2023-08-06T06:35:08;99062.97;;;17.71;100.00
11223;BME280;5668;52.012;8.724;2023-08-06T06:37:35;99066.03;;;17.74;100.00
11223;BME280;5668;52.012;8.724;2023-08-06T06:40:03;99056.00;;;17.78;100.00
11223;BME280;5668;52.012;8.724;2023-08-06T06:42:31;99054.06;;;17.87;100.00
11223;BME280;5668;52.012;8.724;2023-08-06T06:45:00;99057.03;;;17.98;100.00
11223;BME280;5668;52.012;8.724;2023-08-06T06:47:27;99051.84;;;18.05;100.00
11223;BME280;5668;52.012;8.724;2023-08-06T06:49:54;99054.16;;;18.14;100.00
11223;BME280;5668;52.012;8.724;2023-08-06T06:52:21;99058.31;;;18.24;100.00
11223;BME280;5668;52.012;8.724;2023-08-06T06:54:49;99053.94;;;18.31;100.00
11223;BME280;5668;52.012;8.724;2023-08-06T06:57:16;99051.53;;;18.36;100.00
11223;BME280;5668;52.012;8.724;2023-08-06T06:59:43;99051.19;;;18.39;100.00
11223;BME280;5668;52.012;8.724;2023-08-06T07:02:11;99048.78;;;18.44;100.00
11223;BME280;5668;52.012;8.724;2023-08-06T07:04:39;99046.84;;;18.52;100.00
11223;BME280;5668;52.012;8.724;2023-08-06T07:07:06;99047.75;;;18.60;100.00
11223;BME280;5668;52.012;8.724;2023-08-06T07:09:33;99043.97;;;18.69;100.00
11223;BME280;5668;52.012;8.724;2023-08-06T07:12:01;99049.94;;;18.77;100.00
11223;BME280;5668;52.012;8.724;2023-08-06T07:14:29;99047.16;;;18.85;100.00
11223;BME280;5668;52.012;8.724;2023-08-06T07:16:56;99047.00;;;18.93;100.00
11223;BME280;5668;52.012;8.724;2023-08-06T07:19:24;99050.50;;;19.01;100.00
11223;BME280;5668;52.012;8.724;2023-08-06T07:21:52;99043.47;;;19.08;100.00
11223;BME280;5668;52.012;8.724;2023-08-06T07:24:19;99041.28;;;19.18;100.00
11223;BME280;5668;52.012;8.724;2023-08-06T07:26:46;99038.50;;;19.26;100.00
11223;BME280;5668;52.012;8.724;2023-08-06T07:29:14;99044.59;;;19.33;100.00
11223;BME280;5668;52.012;8.724;2023-08-06T07:31:45;99030.88;;;19.38;100.00
11223;BME280;5668;52.012;8.724;2023-08-06T07:34:12;99032.28;;;19.40;100.00
11223;BME280;5668;52.012;8.724;2023-08-06T07:36:44;99036.59;;;19.48;100.00
11223;BME280;5668;52.012;8.724;2023-08-06T07:39:11;99039.31;;;19.54;100.00
11223;BME280;5668;52.012;8.724;2023-08-06T07:41:38;99040.34;;;19.60;100.00
11223;BME280;5668;52.012;8.724;2023-08-06T07:44:06;99041.75;;;19.62;100.00
11223;BME280;5668;52.012;8.724;2023-08-06T07:46:33;99041.97;;;19.67;100.00
11223;BME280;5668;52.012;8.724;2023-08-06T07:49:00;99042.00;;;19.74;100.00
11223;BME280;5668;52.012;8.724;2023-08-06T07:51:28;99034.94;;;19.81;100.00
11223;BME280;5668;52.012;8.724;2023-08-06T07:53:57;99041.03;;;19.88;100.00
11223;BME280;5668;52.012;8.724;2023-08-06T07:56:24;99038.84;;;19.92;100.00
11223;BME280;5668;52.012;8.724;2023-08-06T07:58:51;99035.16;;;19.93;100.00
11223;BME280;5668;52.012;8.724;2023-08-06T08:01:18;99030.50;;;19.95;100.00
11223;BME280;5668;52.012;8.724;2023-08-06T08:03:45;99033.75;;;19.97;100.00
11223;BME280;5668;52.012;8.724;2023-08-06T08:06:12;99036.00;;;20.00;100.00
11223;BME280;5668;52.012;8.724;2023-08-06T08:08:40;99035.22;;;20.06;100.00
11223;BME280;5668;52.012;8.724;2023-08-06T08:11:08;99034.41;;;20.12;100.00
11223;BME280;5668;52.012;8.724;2023-08-06T08:13:35;99034.63;;;20.17;99.71
11223;BME280;5668;52.012;8.724;2023-08-06T08:16:03;99032.59;;;20.19;99.45
11223;BME280;5668;52.012;8.724;2023-08-06T08:18:30;99039.31;;;20.22;99.32
11223;BME280;5668;52.012;8.724;2023-08-06T08:20:58;99040.91;;;20.23;98.78
11223;BME280;5668;52.012;8.724;2023-08-06T08:23:25;99043.16;;;20.26;98.35
11223;BME280;5668;52.012;8.724;2023-08-06T08:25:52;99046.22;;;20.29;97.60
11223;BME280;5668;52.012;8.724;2023-08-06T08:28:22;99044.59;;;20.28;94.75
11223;BME280;5668;52.012;8.724;2023-08-06T08:30:49;99036.44;;;20.30;93.58
11223;BME280;5668;52.012;8.724;2023-08-06T08:33:16;99038.53;;;20.34;92.02
11223;BME280;5668;52.012;8.724;2023-08-06T08:35:45;99036.53;;;20.36;91.50
11223;BME280;5668;52.012;8.724;2023-08-06T08:38:12;99038.13;;;20.37;91.63
11223;BME280;5668;52.012;8.724;2023-08-06T08:40:45;99033.88;;;20.36;92.46
11223;BME280;5668;52.012;8.724;2023-08-06T08:43:13;99035.25;;;20.32;94.12
11223;BME280;5668;52.012;8.724;2023-08-06T08:45:43;99039.34;;;20.35;94.75
11223;BME280;5668;52.012;8.724;2023-08-06T08:48:12;99038.34;;;20.36;93.95
11223;BME280;5668;52.012;8.724;2023-08-06T08:50:40;99038.34;;;20.36;93.63
11223;BME280;5668;52.012;8.724;2023-08-06T08:53:08;99038.53;;;20.34;93.09
11223;BME280;5668;52.012;8.724;2023-08-06T08:55:38;99039.34;;;20.35;93.31
11223;BME280;5668;52.012;8.724;2023-08-06T08:58:06;99045.81;;;20.32;93.66
11223;BME280;5668;52.012;8.724;2023-08-06T09:00:34;99044.59;;;20.28;93.77
11223;BME280;5668;52.012;8.724;2023-08-06T09:03:06;99041.72;;;20.23;93.42
11223;BME280;5668;52.012;8.724;2023-08-06T09:05:34;99036.88;;;20.20;93.11
11223;BME280;5668;52.012;8.724;2023-08-06T09:08:03;99039.72;;;20.25;93.12
11223;BME280;5668;52.012;8.724;2023-08-06T09:10:31;99034.91;;;20.35;93.96
11223;BME280;5668;52.012;8.724;2023-08-06T09:12:58;99039.56;;;20.40;93.72
11223;BME280;5668;52.012;8.724;2023-08-06T09:15:27;99045.03;;;20.45;94.32
11223;BME280;5668;52.012;8.724;2023-08-06T09:17:55;99042.00;;;20.55;95.04
11223;BME280;5668;52.012;8.724;2023-08-06T09:20:24;99035.50;;;20.64;95.77
11223;BME280;5668;52.012;8.724;2023-08-06T09:22:53;99033.50;;;20.66;95.95
11223;BME280;5668;52.012;8.724;2023-08-06T09:25:22;99032.88;;;20.70;96.16
11223;BME280;5668;52.012;8.724;2023-08-06T09:27:50;99029.63;;;20.75;96.52
11223;BME280;5668;52.012;8.724;2023-08-06T09:30:29;99034.28;;;20.86;96.38
11223;BME280;5668;52.012;8.724;2023-08-06T09:32:58;99034.47;;;20.91;95.67
11223;BME280;5668;52.012;8.724;2023-08-06T09:35:28;99032.44;;;21.00;95.02
11223;BME280;5668;52.012;8.724;2023-08-06T09:38:01;99026.13;;;21.07;94.36
11223;BME280;5668;52.012;8.724;2023-08-06T09:40:32;99023.28;;;21.22;94.61
11223;BME280;5668;52.012;8.724;2023-08-06T09:43:00;99020.38;;;21.37;93.95
11223;BME280;5668;52.012;8.724;2023-08-06T09:45:30;99023.00;;;21.50;93.14
11223;BME280;5668;52.012;8.724;2023-08-06T09:47:58;99016.03;;;21.62;92.82
11223;BME280;5668;52.012;8.724;2023-08-06T09:50:30;99020.03;;;21.78;92.02
11223;BME280;5668;52.012;8.724;2023-08-06T09:52:58;99023.63;;;21.90;91.45
11223;BME280;5668;52.012;8.724;2023-08-06T09:55:26;99021.94;;;21.95;89.37
11223;BME280;5668;52.012;8.724;2023-08-06T09:57:54;99016.28;;;21.98;88.30
11223;BME280;5668;52.012;8.724;2023-08-06T10:00:22;99022.78;;;22.03;88.38
11223;BME280;5668;52.012;8.724;2023-08-06T10:02:50;99017.81;;;22.13;89.04
11223;BME280;5668;52.012;8.724;2023-08-06T10:05:21;99013.69;;;22.23;88.62
11223;BME280;5668;52.012;8.724;2023-08-06T10:07:51;99011.59;;;22.32;86.88
11223;BME280;5668;52.012;8.724;2023-08-06T10:10:22;99016.44;;;22.35;85.76
11223;BME280;5668;52.012;8.724;2023-08-06T10:12:51;99016.56;;;22.47;86.97
11223;BME280;5668;52.012;8.724;2023-08-06T10:15:23;99016.69;;;22.58;86.20
11223;BME280;5668;52.012;8.724;2023-08-06T10:17:54;99012.34;;;22.64;83.20
11223;BME280;5668;52.012;8.724;2023-08-06T10:20:23;99011.09;;;22.66;84.00
11223;BME280;5668;52.012;8.724;2023-08-06T10:23:01;99011.53;;;22.63;84.58
11223;BME280;5668;52.012;8.724;2023-08-06T10:25:31;99007.03;;;22.64;85.45
11223;BME280;5668;52.012;8.724;2023-08-06T10:28:00;99006.41;;;22.68;84.45
11223;BME280;5668;52.012;8.724;2023-08-06T10:30:29;99007.59;;;22.72;84.78
11223;BME280;5668;52.012;8.724;2023-08-06T10:32:58;99013.34;;;22.69;81.75
11223;BME280;5668;52.012;8.724;2023-08-06T10:35:31;99004.41;;;22.64;80.94
11223;BME280;5668;52.012;8.724;2023-08-06T10:38:02;99008.38;;;22.55;80.54
11223;BME280;5668;52.012;8.724;2023-08-06T10:40:30;98997.19;;;22.53;81.10
11223;BME280;5668;52.012;8.724;2023-08-06T10:42:59;98994.47;;;22.59;82.55
11223;BME280;5668;52.012;8.724;2023-08-06T10:45:26;98995.81;;;22.68;82.35
11223;BME280;5668;52.012;8.724;2023-08-06T10:47:56;98998.22;;;22.76;81.58
11223;BME280;5668;52.012;8.724;2023-08-06T10:50:24;98996.97;;;22.79;81.11
11223;BME280;5668;52.012;8.724;2023-08-06T10:52:52;98994.31;;;22.79;81.77
11223;BME280;5668;52.012;8.724;2023-08-06T10:55:25;99002.28;;;22.72;78.75
11223;BME280;5668;52.012;8.724;2023-08-06T10:57:53;99002.19;;;22.61;78.28
11223;BME280;5668;52.012;8.724;2023-08-06T11:00:21;98996.34;;;22.52;77.25
11223;BME280;5668;52.012;8.724;2023-08-06T11:02:50;99000.75;;;22.40;77.92
11223;BME280;5668;52.012;8.724;2023-08-06T11:05:18;98992.34;;;22.43;78.82
11223;BME280;5668;52.012;8.724;2023-08-06T11:07:45;98989.50;;;22.45;78.83
11223;BME280;5668;52.012;8.724;2023-08-06T11:10:14;98996.03;;;22.42;78.88
11223;BME280;5668;52.012;8.724;2023-08-06T11:12:43;98991.44;;;22.56;81.20
11223;BME280;5668;52.012;8.724;2023-08-06T11:15:11;98981.38;;;22.64;81.08
11223;BME280;5668;52.012;8.724;2023-08-06T11:17:40;98976.44;;;22.74;81.57
11223;BME280;5668;52.012;8.724;2023-08-06T11:20:09;98983.00;;;22.90;81.71
11223;BME280;5668;52.012;8.724;2023-08-06T11:22:37;98980.41;;;23.02;81.50
11223;BME280;5668;52.012;8.724;2023-08-06T11:25:06;98977.56;;;23.03;76.73
11223;BME280;5668;52.012;8.724;2023-08-06T11:27:34;98978.69;;;23.14;78.37
11223;BME280;5668;52.012;8.724;2023-08-06T11:30:02;98987.66;;;23.13;77.08
11223;BME280;5668;52.012;8.724;2023-08-06T11:32:30;98986.47;;;23.09;76.58
11223;BME280;5668;52.012;8.724;2023-08-06T11:35:08;98984.19;;;23.12;79.16
11223;BME280;5668;52.012;8.724;2023-08-06T11:37:37;98984.63;;;23.09;78.06
11223;BME280;5668;52.012;8.724;2023-08-06T11:40:09;98974.69;;;23.05;78.09
11223;BME280;5668;52.012;8.724;2023-08-06T11:42:38;98974.25;;;23.08;78.63
11223;BME280;5668;52.012;8.724;2023-08-06T11:45:07;98965.25;;;23.09;79.03
11223;BME280;5668;52.012;8.724;2023-08-06T11:47:39;98972.25;;;23.03;75.04
11223;BME280;5668;52.012;8.724;2023-08-06T11:50:08;98967.84;;;22.97;76.28
11223;BME280;5668;52.012;8.724;2023-08-06T11:52:39;98964.97;;;22.99;75.10
11223;BME280;5668;52.012;8.724;2023-08-06T11:55:09;98962.03;;;23.07;76.48
11223;BME280;5668;52.012;8.724;2023-08-06T11:57:37;98962.91;;;23.19;76.79
11223;BME280;5668;52.012;8.724;2023-08-06T12:00:08;98957.38;;;23.21;74.44
11223;BME280;5668;52.012;8.724;2023-08-06T12:02:38;98961.88;;;23.20;74.68
11223;BME280;5668;52.012;8.724;2023-08-06T12:05:11;98952.91;;;23.21;74.92
11223;BME280;5668;52.012;8.724;2023-08-06T12:07:40;98952.09;;;23.21;73.26
11223;BME280;5668;52.012;8.724;2023-08-06T12:10:09;98950.81;;;23.23;74.31
11223;BME280;5668;52.012;8.724;2023-08-06T12:12:37;98945.09;;;23.26;75.64
11223;BME280;5668;52.012;8.724;2023-08-06T12:15:07;98938.63;;;23.22;74.97
11223;BME280;5668;52.012;8.724;2023-08-06T12:17:35;98950.81;;;23.23;75.87
11223;BME280;5668;52.012;8.724;2023-08-06T12:20:03;98945.50;;;23.23;76.56
11223;BME280;5668;52.012;8.724;2023-08-06T12:22:32;98948.41;;;23.22;76.15
11223;BME280;5668;52.012;8.724;2023-08-06T12:25:01;98948.63;;;23.20;76.10
11223;BME280;5668;52.012;8.724;2023-08-06T12:27:29;98943.91;;;23.22;75.32
11223;BME280;5668;52.012;8.724;2023-08-06T12:29:56;98938.97;;;23.26;75.28
11223;BME280;5668;52.012;8.724;2023-08-06T12:32:25;98934.03;;;23.29;76.33
11223;BME280;5668;52.012;8.724;2023-08-06T12:34:53;98939.09;;;23.31;75.41
11223;BME280;5668;52.012;8.724;2023-08-06T12:37:20;98936.22;;;23.32;74.72
11223;BME280;5668;52.012;8.724;2023-08-06T12:39:47;98938.44;;;23.35;73.34
11223;BME280;5668;52.012;8.724;2023-08-06T12:42:14;98939.03;;;23.37;73.55
11223;BME280;5668;52.012;8.724;2023-08-06T12:44:41;98945.06;;;23.44;73.79
11223;BME280;5668;52.012;8.724;2023-08-06T12:47:09;98947.25;;;23.47;73.81
11223;BME280;5668;52.012;8.724;2023-08-06T12:49:38;98941.94;;;23.47;72.05
11223;BME280;5668;52.012;8.724;2023-08-06T12:52:05;98946.44;;;23.47;71.76
11223;BME280;5668;52.012;8.724;2023-08-06T12:54:35;98942.78;;;23.48;71.62
11223;BME280;5668;52.012;8.724;2023-08-06T12:57:03;98942.56;;;23.49;72.40
11223;BME280;5668;52.012;8.724;2023-08-06T12:59:31;98951.69;;;23.53;73.39
11223;BME280;5668;52.012;8.724;2023-08-06T13:01:59;98944.19;;;23.50;72.66
11223;BME280;5668;52.012;8.724;2023-08-06T13:04:26;98942.38;;;23.51;72.06
11223;BME280;5668;52.012;8.724;2023-08-06T13:06:55;98938.50;;;23.47;71.91
11223;BME280;5668;52.012;8.724;2023-08-06T13:09:22;98936.66;;;23.47;73.17
11223;BME280;5668;52.012;8.724;2023-08-06T13:11:49;98944.59;;;23.47;74.68